sensor_id;sensor_type;location;lat;lon;timestamp;P1;durP1;ratioP1;P2;durP2;ratioP2
32445;SDS011;18899;50.748;7.102;2023-07-30T00:00:41;6.18;;;2.95;;
32445;SDS011;18899;50.748;7.102;2023-07-30T00:03:07;3.70;;;2.95;;
32445;SDS011;18899;50.748;7.102;2023-07-30T00:05:32;6.95;;;3.20;;
32445;SDS011;18899;50.748;7.102;2023-07-30T00:07:58;7.07;;;3.60;;
32445;SDS011;18899;50.748;7.102;2023-07-30T00:10:24;5.28;;;2.97;;
32445;SDS011;18899;50.748;7.102;2023-07-30T00:12:49;6.00;;;2.70;;
32445;SDS011;18899;50.748;7.102;2023-07-30T00:15:15;5.15;;;2.70;;
32445;SDS011;18899;50.748;7.102;2023-07-30T00:17:41;5.07;;;2.55;;
32445;SDS011;18899;50.748;7.102;2023-07-30T00:20:07;5.70;;;2.88;;
32445;SDS011;18899;50.748;7.102;2023-07-30T00:22:34;7.22;;;2.63;;
32445;SDS011;18899;50.748;7.102;2023-07-30T00:25:00;11.55;;;3.17;;
32445;SDS011;18899;50.748;7.102;2023-07-30T00:27:25;6.15;;;3.05;;
32445;SDS011;18899;50.748;7.102;2023-07-30T00:29:51;4.78;;;2.83;;
32445;SDS011;18899;50.748;7.102;2023-07-30T00:32:16;6.97;;;3.28;;
32445;SDS011;18899;50.748;7.102;2023-07-30T00:34:42;4.80;;;2.88;;
32445;SDS011;18899;50.748;7.102;2023-07-30T00:37:08;7.68;;;3.20;;
32445;SDS011;18899;50.748;7.102;2023-07-30T00:39:35;9.98;;;3.10;;
32445;SDS011;18899;50.748;7.102;2023-07-30T00:42:00;9.63;;;2.97;;
32445;SDS011;18899;50.748;7.102;2023-07-30T00:44:26;4.10;;;2.78;;
32445;SDS011;18899;50.748;7.102;2023-07-30T00:46:52;4.65;;;3.20;;
32445;SDS011;18899;50.748;7.102;2023-07-30T00:49:18;5.60;;;3.33;;
32445;SDS011;18899;50.748;7.102;2023-07-30T00:51:43;5.13;;;3.17;;
32445;SDS011;18899;50.748;7.102;2023-07-30T00:54:10;4.47;;;2.80;;
32445;SDS011;18899;50.748;7.102;2023-07-30T00:56:36;9.07;;;3.05;;
32445;SDS011;18899;50.748;7.102;2023-07-30T00:59:01;5.72;;;3.00;;
32445;SDS011;18899;50.748;7.102;2023-07-30T01:01:28;3.95;;;2.92;;
32445;SDS011;18899;50.748;7.102;2023-07-30T01:03:58;6.90;;;3.38;;
32445;SDS011;18899;50.748;7.102;2023-07-30T01:06:24;4.65;;;3.20;;
32445;SDS011;18899;50.748;7.102;2023-07-30T01:08:49;5.20;;;3.20;;
32445;SDS011;18899;50.748;7.102;2023-07-30T01:11:15;6.90;;;3.63;;
32445;SDS011;18899;50.748;7.102;2023-07-30T01:13:41;8.30;;;3.42;;
32445;SDS011;18899;50.748;7.102;2023-07-30T01:16:07;9.65;;;3.95;;
32445;SDS011;18899;50.748;7.102;2023-07-30T01:18:33;14.98;;;4.15;;
32445;SDS011;18899;50.748;7.102;2023-07-30T01:20:59;9.93;;;3.42;;
32445;SDS011;18899;50.748;7.102;2023-07-30T01:23:25;4.22;;;2.88;;
32445;SDS011;18899;50.748;7.102;2023-07-30T01:25:59;6.28;;;3.22;;
32445;SDS011;18899;50.748;7.102;2023-07-30T01:28:39;5.35;;;3.53;;
32445;SDS011;18899;50.748;7.102;2023-07-30T01:31:12;14.05;;;3.20;;
32445;SDS011;18899;50.748;7.102;2023-07-30T01:33:41;5.45;;;3.50;;
32445;SDS011;18899;50.748;7.102;2023-07-30T01:36:07;7.13;;;3.58;;
32445;SDS011;18899;50.748;7.102;2023-07-30T01:38:36;6.95;;;3.80;;
32445;SDS011;18899;50.748;7.102;2023-07-30T01:41:03;6.93;;;3.20;;
32445;SDS011;18899;50.748;7.102;2023-07-30T01:43:29;5.45;;;3.40;;
32445;SDS011;18899;50.748;7.102;2023-07-30T01:45:55;7.10;;;3.95;;
32445;SDS011;18899;50.748;7.102;2023-07-30T01:48:20;9.32;;;3.80;;
32445;SDS011;18899;50.748;7.102;2023-07-30T01:50:46;6.97;;;3.10;;
32445;SDS011;18899;50.748;7.102;2023-07-30T01:53:13;6.30;;;3.00;;
32445;SDS011;18899;50.748;7.102;2023-07-30T01:55:39;5.82;;;2.88;;
32445;SDS011;18899;50.748;7.102;2023-07-30T01:58:08;5.65;;;2.58;;
32445;SDS011;18899;50.748;7.102;2023-07-30T02:00:35;5.07;;;2.58;;
32445;SDS011;18899;50.748;7.102;2023-07-30T02:03:00;8.25;;;2.83;;
32445;SDS011;18899;50.748;7.102;2023-07-30T02:05:26;7.00;;;2.55;;
32445;SDS011;18899;50.748;7.102;2023-07-30T02:07:51;5.97;;;2.40;;
32445;SDS011;18899;50.748;7.102;2023-07-30T02:10:17;6.40;;;2.33;;
32445;SDS011;18899;50.748;7.102;2023-07-30T02:12:42;3.40;;;2.00;;
32445;SDS011;18899;50.748;7.102;2023-07-30T02:15:08;3.67;;;2.10;;
32445;SDS011;18899;50.748;7.102;2023-07-30T02:17:34;4.88;;;2.08;;
32445;SDS011;18899;50.748;7.102;2023-07-30T02:19:59;7.78;;;2.40;;
32445;SDS011;18899;50.748;7.102;2023-07-30T02:22:25;7.45;;;2.28;;
32445;SDS011;18899;50.748;7.102;2023-07-30T02:24:50;3.47;;;2.05;;
32445;SDS011;18899;50.748;7.102;2023-07-30T02:27:16;4.80;;;1.90;;
32445;SDS011;18899;50.748;7.102;2023-07-30T02:29:41;6.80;;;2.38;;
32445;SDS011;18899;50.748;7.102;2023-07-30T02:32:07;6.47;;;2.08;;
32445;SDS011;18899;50.748;7.102;2023-07-30T02:34:33;8.63;;;2.30;;
32445;SDS011;18899;50.748;7.102;2023-07-30T02:36:58;3.13;;;1.70;;
32445;SDS011;18899;50.748;7.102;2023-07-30T02:39:24;5.95;;;1.98;;
32445;SDS011;18899;50.748;7.102;2023-07-30T02:41:49;5.53;;;1.73;;
32445;SDS011;18899;50.748;7.102;2023-07-30T02:44:15;6.05;;;1.70;;
32445;SDS011;18899;50.748;7.102;2023-07-30T02:46:40;5.32;;;1.80;;
32445;SDS011;18899;50.748;7.102;2023-07-30T02:49:06;5.00;;;1.63;;
32445;SDS011;18899;50.748;7.102;2023-07-30T02:51:33;5.25;;;1.83;;
32445;SDS011;18899;50.748;7.102;2023-07-30T02:53:59;5.38;;;1.70;;
32445;SDS011;18899;50.748;7.102;2023-07-30T02:56:29;3.65;;;1.80;;
32445;SDS011;18899;50.748;7.102;2023-07-30T02:58:55;3.33;;;1.80;;
32445;SDS011;18899;50.748;7.102;2023-07-30T03:01:21;4.68;;;1.67;;
32445;SDS011;18899;50.748;7.102;2023-07-30T03:03:47;7.00;;;1.73;;
32445;SDS011;18899;50.748;7.102;2023-07-30T03:06:13;5.97;;;1.88;;
32445;SDS011;18899;50.748;7.102;2023-07-30T03:08:39;4.15;;;1.75;;
32445;SDS011;18899;50.748;7.102;2023-07-30T03:11:04;3.00;;;1.77;;
32445;SDS011;18899;50.748;7.102;2023-07-30T03:13:30;7.32;;;1.55;;
32445;SDS011;18899;50.748;7.102;2023-07-30T03:15:55;4.80;;;1.80;;
32445;SDS011;18899;50.748;7.102;2023-07-30T03:18:21;5.38;;;1.92;;
32445;SDS011;18899;50.748;7.102;2023-07-30T03:20:46;7.03;;;1.88;;
32445;SDS011;18899;50.748;7.102;2023-07-30T03:23:12;4.13;;;1.90;;
32445;SDS011;18899;50.748;7.102;2023-07-30T03:25:38;7.53;;;1.83;;
32445;SDS011;18899;50.748;7.102;2023-07-30T03:28:04;3.17;;;1.60;;
32445;SDS011;18899;50.748;7.102;2023-07-30T03:30:30;3.50;;;1.77;;
32445;SDS011;18899;50.748;7.102;2023-07-30T03:32:55;5.05;;;1.95;;
32445;SDS011;18899;50.748;7.102;2023-07-30T03:35:21;4.57;;;1.60;;
32445;SDS011;18899;50.748;7.102;2023-07-30T03:37:46;7.50;;;1.65;;
32445;SDS011;18899;50.748;7.102;2023-07-30T03:40:12;4.45;;;1.70;;
32445;SDS011;18899;50.748;7.102;2023-07-30T03:42:37;3.75;;;1.80;;
32445;SDS011;18899;50.748;7.102;2023-07-30T03:45:03;3.80;;;1.85;;
32445;SDS011;18899;50.748;7.102;2023-07-30T03:47:29;4.15;;;2.25;;
32445;SDS011;18899;50.748;7.102;2023-07-30T03:49:55;11.43;;;2.30;;
32445;SDS011;18899;50.748;7.102;2023-07-30T03:52:20;5.72;;;1.70;;
32445;SDS011;18899;50.748;7.102;2023-07-30T03:54:46;4.60;;;1.80;;
32445;SDS011;18899;50.748;7.102;2023-07-30T03:57:11;8.98;;;1.85;;
32445;SDS011;18899;50.748;7.102;2023-07-30T03:59:37;5.15;;;1.77;;
32445;SDS011;18899;50.748;7.102;2023-07-30T04:02:02;5.47;;;2.20;;
32445;SDS011;18899;50.748;7.102;2023-07-30T04:04:29;4.82;;;2.10;;
32445;SDS011;18899;50.748;7.102;2023-07-30T04:06:55;10.25;;;2.05;;
32445;SDS011;18899;50.748;7.102;2023-07-30T04:09:20;3.70;;;1.85;;
32445;SDS011;18899;50.748;7.102;2023-07-30T04:11:46;2.58;;;1.63;;
32445;SDS011;18899;50.748;7.102;2023-07-30T04:14:11;9.88;;;2.03;;
32445;SDS011;18899;50.748;7.102;2023-07-30T04:16:37;5.15;;;1.70;;
32445;SDS011;18899;50.748;7.102;2023-07-30T04:19:02;4.90;;;1.83;;
32445;SDS011;18899;50.748;7.102;2023-07-30T04:21:28;6.45;;;1.88;;
32445;SDS011;18899;50.748;7.102;2023-07-30T04:23:53;5.88;;;2.00;;
32445;SDS011;18899;50.748;7.102;2023-07-30T04:26:19;3.72;;;1.70;;
32445;SDS011;18899;50.748;7.102;2023-07-30T04:28:44;5.65;;;2.05;;
32445;SDS011;18899;50.748;7.102;2023-07-30T04:31:10;5.53;;;1.67;;
32445;SDS011;18899;50.748;7.102;2023-07-30T04:33:36;7.55;;;1.95;;
32445;SDS011;18899;50.748;7.102;2023-07-30T04:36:01;5.78;;;1.88;;
32445;SDS011;18899;50.748;7.102;2023-07-30T04:38:27;6.88;;;1.90;;
32445;SDS011;18899;50.748;7.102;2023-07-30T04:40:54;5.68;;;2.17;;
32445;SDS011;18899;50.748;7.102;2023-07-30T04:43:22;5.85;;;2.20;;
32445;SDS011;18899;50.748;7.102;2023-07-30T04:45:47;5.03;;;1.90;;
32445;SDS011;18899;50.748;7.102;2023-07-30T04:48:13;8.57;;;1.75;;
32445;SDS011;18899;50.748;7.102;2023-07-30T04:50:38;5.85;;;1.83;;
32445;SDS011;18899;50.748;7.102;2023-07-30T04:53:06;10.68;;;1.88;;
32445;SDS011;18899;50.748;7.102;2023-07-30T04:55:32;8.65;;;1.45;;
32445;SDS011;18899;50.748;7.102;2023-07-30T04:57:58;5.43;;;1.80;;
32445;SDS011;18899;50.748;7.102;2023-07-30T05:00:23;5.13;;;1.70;;
32445;SDS011;18899;50.748;7.102;2023-07-30T05:02:49;10.35;;;1.75;;
32445;SDS011;18899;50.748;7.102;2023-07-30T05:05:14;10.15;;;1.58;;
32445;SDS011;18899;50.748;7.102;2023-07-30T05:07:40;4.85;;;1.60;;
32445;SDS011;18899;50.748;7.102;2023-07-30T05:10:06;7.32;;;1.40;;
32445;SDS011;18899;50.748;7.102;2023-07-30T05:12:35;4.28;;;1.95;;
32445;SDS011;18899;50.748;7.102;2023-07-30T05:15:00;7.03;;;2.00;;
32445;SDS011;18899;50.748;7.102;2023-07-30T05:17:26;7.93;;;1.90;;
32445;SDS011;18899;50.748;7.102;2023-07-30T05:19:51;11.15;;;1.90;;
32445;SDS011;18899;50.748;7.102;2023-07-30T05:22:17;8.68;;;1.95;;
32445;SDS011;18899;50.748;7.102;2023-07-30T05:24:42;9.40;;;1.98;;
32445;SDS011;18899;50.748;7.102;2023-07-30T05:27:08;6.32;;;1.50;;
32445;SDS011;18899;50.748;7.102;2023-07-30T05:29:33;8.07;;;2.05;;
32445;SDS011;18899;50.748;7.102;2023-07-30T05:31:59;14.98;;;1.92;;
32445;SDS011;18899;50.748;7.102;2023-07-30T05:34:24;3.30;;;1.58;;
32445;SDS011;18899;50.748;7.102;2023-07-30T05:36:50;4.75;;;1.20;;
32445;SDS011;18899;50.748;7.102;2023-07-30T05:39:16;11.27;;;1.90;;
32445;SDS011;18899;50.748;7.102;2023-07-30T05:41:41;5.85;;;1.90;;
32445;SDS011;18899;50.748;7.102;2023-07-30T05:44:07;5.95;;;1.65;;
32445;SDS011;18899;50.748;7.102;2023-07-30T05:46:32;7.72;;;1.80;;
32445;SDS011;18899;50.748;7.102;2023-07-30T05:48:58;8.93;;;2.13;;
32445;SDS011;18899;50.748;7.102;2023-07-30T05:51:23;5.35;;;1.60;;
32445;SDS011;18899;50.748;7.102;2023-07-30T05:53:49;8.13;;;1.77;;
32445;SDS011;18899;50.748;7.102;2023-07-30T05:56:14;5.00;;;1.55;;
32445;SDS011;18899;50.748;7.102;2023-07-30T05:58:43;4.97;;;1.42;;
32445;SDS011;18899;50.748;7.102;2023-07-30T06:01:09;5.80;;;1.80;;
32445;SDS011;18899;50.748;7.102;2023-07-30T06:03:34;9.30;;;1.77;;
32445;SDS011;18899;50.748;7.102;2023-07-30T06:06:01;8.40;;;1.85;;
32445;SDS011;18899;50.748;7.102;2023-07-30T06:08:26;5.20;;;1.50;;
32445;SDS011;18899;50.748;7.102;2023-07-30T06:10:52;11.10;;;2.17;;
32445;SDS011;18899;50.748;7.102;2023-07-30T06:13:17;9.27;;;1.70;;
32445;SDS011;18899;50.748;7.102;2023-07-30T06:15:43;6.50;;;1.48;;
32445;SDS011;18899;50.748;7.102;2023-07-30T06:18:09;8.00;;;1.60;;
32445;SDS011;18899;50.748;7.102;2023-07-30T06:20:34;8.77;;;2.25;;
32445;SDS011;18899;50.748;7.102;2023-07-30T06:23:00;8.38;;;1.70;;
32445;SDS011;18899;50.748;7.102;2023-07-30T06:25:26;7.28;;;1.80;;
32445;SDS011;18899;50.748;7.102;2023-07-30T06:27:51;7.75;;;1.73;;
32445;SDS011;18899;50.748;7.102;2023-07-30T06:30:17;7.95;;;2.08;;
32445;SDS011;18899;50.748;7.102;2023-07-30T06:32:42;8.18;;;1.75;;
32445;SDS011;18899;50.748;7.102;2023-07-30T06:35:08;10.85;;;1.80;;
32445;SDS011;18899;50.748;7.102;2023-07-30T06:37:34;5.43;;;1.48;;
32445;SDS011;18899;50.748;7.102;2023-07-30T06:39:59;8.40;;;1.52;;
32445;SDS011;18899;50.748;7.102;2023-07-30T06:42:25;12.82;;;2.47;;
32445;SDS011;18899;50.748;7.102;2023-07-30T06:44:51;11.60;;;1.58;;
32445;SDS011;18899;50.748;7.102;2023-07-30T06:47:16;10.00;;;1.90;;
32445;SDS011;18899;50.748;7.102;2023-07-30T06:49:42;5.55;;;1.77;;
32445;SDS011;18899;50.748;7.102;2023-07-30T06:52:08;4.43;;;1.50;;
32445;SDS011;18899;50.748;7.102;2023-07-30T06:54:33;6.97;;;2.00;;
32445;SDS011;18899;50.748;7.102;2023-07-30T06:56:59;5.70;;;1.70;;
32445;SDS011;18899;50.748;7.102;2023-07-30T06:59:24;7.72;;;2.00;;
32445;SDS011;18899;50.748;7.102;2023-07-30T07:01:50;5.90;;;1.80;;
32445;SDS011;18899;50.748;7.102;2023-07-30T07:04:15;9.75;;;2.30;;
32445;SDS011;18899;50.748;7.102;2023-07-30T07:06:41;6.07;;;1.83;;
32445;SDS011;18899;50.748;7.102;2023-07-30T07:09:06;9.02;;;2.35;;
32445;SDS011;18899;50.748;7.102;2023-07-30T07:11:32;7.13;;;1.70;;
32445;SDS011;18899;50.748;7.102;2023-07-30T07:13:57;15.20;;;2.20;;
32445;SDS011;18899;50.748;7.102;2023-07-30T07:16:23;4.95;;;1.80;;
32445;SDS011;18899;50.748;7.102;2023-07-30T07:18:48;9.07;;;1.60;;
32445;SDS011;18899;50.748;7.102;2023-07-30T07:21:14;6.38;;;1.90;;
32445;SDS011;18899;50.748;7.102;2023-07-30T07:23:40;8.60;;;2.10;;
32445;SDS011;18899;50.748;7.102;2023-07-30T07:26:05;8.80;;;1.80;;
32445;SDS011;18899;50.748;7.102;2023-07-30T07:28:31;11.00;;;1.83;;
32445;SDS011;18899;50.748;7.102;2023-07-30T07:30:56;8.18;;;1.95;;
32445;SDS011;18899;50.748;7.102;2023-07-30T07:33:22;8.60;;;2.30;;
32445;SDS011;18899;50.748;7.102;2023-07-30T07:35:48;6.72;;;1.83;;
32445;SDS011;18899;50.748;7.102;2023-07-30T07:38:13;8.50;;;1.85;;
32445;SDS011;18899;50.748;7.102;2023-07-30T07:40:39;7.25;;;2.15;;
32445;SDS011;18899;50.748;7.102;2023-07-30T07:43:06;7.45;;;2.20;;
32445;SDS011;18899;50.748;7.102;2023-07-30T07:45:32;6.93;;;1.60;;
32445;SDS011;18899;50.748;7.102;2023-07-30T07:47:57;5.63;;;1.70;;
32445;SDS011;18899;50.748;7.102;2023-07-30T07:50:23;4.28;;;1.30;;
32445;SDS011;18899;50.748;7.102;2023-07-30T07:52:49;6.78;;;1.63;;
32445;SDS011;18899;50.748;7.102;2023-07-30T07:55:14;5.38;;;1.67;;
32445;SDS011;18899;50.748;7.102;2023-07-30T07:57:40;7.53;;;1.70;;
32445;SDS011;18899;50.748;7.102;2023-07-30T08:00:06;6.53;;;1.85;;
32445;SDS011;18899;50.748;7.102;2023-07-30T08:02:32;5.07;;;1.50;;
32445;SDS011;18899;50.748;7.102;2023-07-30T08:04:57;4.30;;;1.60;;
32445;SDS011;18899;50.748;7.102;2023-07-30T08:07:23;5.20;;;1.70;;
32445;SDS011;18899;50.748;7.102;2023-07-30T08:09:48;7.95;;;1.42;;
32445;SDS011;18899;50.748;7.102;2023-07-30T08:12:16;4.68;;;1.38;;
32445;SDS011;18899;50.748;7.102;2023-07-30T08:14:42;11.00;;;1.33;;
32445;SDS011;18899;50.748;7.102;2023-07-30T08:17:07;4.55;;;1.17;;
32445;SDS011;18899;50.748;7.102;2023-07-30T08:19:33;6.40;;;1.33;;
32445;SDS011;18899;50.748;7.102;2023-07-30T08:21:58;5.97;;;1.27;;
32445;SDS011;18899;50.748;7.102;2023-07-30T08:24:24;4.53;;;1.58;;
32445;SDS011;18899;50.748;7.102;2023-07-30T08:26:49;5.93;;;1.40;;
32445;SDS011;18899;50.748;7.102;2023-07-30T08:29:15;6.78;;;1.35;;
32445;SDS011;18899;50.748;7.102;2023-07-30T08:31:41;6.18;;;1.50;;
32445;SDS011;18899;50.748;7.102;2023-07-30T08:34:07;7.85;;;1.20;;
32445;SDS011;18899;50.748;7.102;2023-07-30T08:36:32;8.40;;;1.35;;
32445;SDS011;18899;50.748;7.102;2023-07-30T08:38:58;6.75;;;1.30;;
32445;SDS011;18899;50.748;7.102;2023-07-30T08:41:24;4.00;;;1.40;;
32445;SDS011;18899;50.748;7.102;2023-07-30T08:43:49;10.02;;;1.60;;
32445;SDS011;18899;50.748;7.102;2023-07-30T08:46:17;7.05;;;1.67;;
32445;SDS011;18899;50.748;7.102;2023-07-30T08:48:43;11.07;;;1.60;;
32445;SDS011;18899;50.748;7.102;2023-07-30T08:51:08;7.03;;;1.63;;
32445;SDS011;18899;50.748;7.102;2023-07-30T08:53:36;7.00;;;1.58;;
32445;SDS011;18899;50.748;7.102;2023-07-30T08:56:01;5.28;;;1.38;;
32445;SDS011;18899;50.748;7.102;2023-07-30T08:58:30;9.43;;;1.50;;
32445;SDS011;18899;50.748;7.102;2023-07-30T09:00:59;10.07;;;1.75;;
32445;SDS011;18899;50.748;7.102;2023-07-30T09:03:28;12.30;;;1.77;;
32445;SDS011;18899;50.748;7.102;2023-07-30T09:05:56;8.48;;;1.58;;
32445;SDS011;18899;50.748;7.102;2023-07-30T09:08:22;11.10;;;1.38;;
32445;SDS011;18899;50.748;7.102;2023-07-30T09:10:48;3.72;;;1.35;;
32445;SDS011;18899;50.748;7.102;2023-07-30T09:13:20;6.88;;;1.40;;
32445;SDS011;18899;50.748;7.102;2023-07-30T09:15:48;7.22;;;1.35;;
32445;SDS011;18899;50.748;7.102;2023-07-30T09:18:16;9.93;;;1.52;;
32445;SDS011;18899;50.748;7.102;2023-07-30T09:20:42;8.88;;;1.40;;
32445;SDS011;18899;50.748;7.102;2023-07-30T09:23:08;5.72;;;1.20;;
32445;SDS011;18899;50.748;7.102;2023-07-30T09:25:35;5.90;;;1.77;;
32445;SDS011;18899;50.748;7.102;2023-07-30T09:28:01;8.50;;;1.65;;
32445;SDS011;18899;50.748;7.102;2023-07-30T09:30:27;6.55;;;1.30;;
32445;SDS011;18899;50.748;7.102;2023-07-30T09:32:53;7.82;;;1.38;;
32445;SDS011;18899;50.748;7.102;2023-07-30T09:35:23;5.72;;;1.60;;
32445;SDS011;18899;50.748;7.102;2023-07-30T09:37:50;8.20;;;1.58;;
32445;SDS011;18899;50.748;7.102;2023-07-30T09:40:30;6.70;;;1.23;;
32445;SDS011;18899;50.748;7.102;2023-07-30T09:42:57;9.20;;;1.30;;
32445;SDS011;18899;50.748;7.102;2023-07-30T09:45:23;6.57;;;1.17;;
32445;SDS011;18899;50.748;7.102;2023-07-30T09:47:51;6.85;;;1.35;;
32445;SDS011;18899;50.748;7.102;2023-07-30T09:50:18;8.77;;;1.13;;
32445;SDS011;18899;50.748;7.102;2023-07-30T09:52:44;6.60;;;1.17;;
32445;SDS011;18899;50.748;7.102;2023-07-30T09:55:10;5.30;;;1.08;;
32445;SDS011;18899;50.748;7.102;2023-07-30T09:57:36;5.13;;;1.30;;
32445;SDS011;18899;50.748;7.102;2023-07-30T10:00:03;5.70;;;1.33;;
32445;SDS011;18899;50.748;7.102;2023-07-30T10:02:30;7.28;;;1.67;;
32445;SDS011;18899;50.748;7.102;2023-07-30T10:04:59;6.07;;;1.20;;
32445;SDS011;18899;50.748;7.102;2023-07-30T10:07:25;6.30;;;1.48;;
32445;SDS011;18899;50.748;7.102;2023-07-30T10:09:54;6.28;;;1.10;;
32445;SDS011;18899;50.748;7.102;2023-07-30T10:12:24;7.97;;;1.27;;
32445;SDS011;18899;50.748;7.102;2023-07-30T10:14:55;5.07;;;1.20;;
32445;SDS011;18899;50.748;7.102;2023-07-30T10:17:21;4.15;;;1.10;;
32445;SDS011;18899;50.748;7.102;2023-07-30T10:19:47;4.22;;;1.10;;
32445;SDS011;18899;50.748;7.102;2023-07-30T10:22:23;5.10;;;0.97;;
32445;SDS011;18899;50.748;7.102;2023-07-30T10:25:00;4.95;;;1.05;;
32445;SDS011;18899;50.748;7.102;2023-07-30T10:27:34;6.75;;;1.10;;
32445;SDS011;18899;50.748;7.102;2023-07-30T10:37:57;9.75;;;1.48;;
32445;SDS011;18899;50.748;7.102;2023-07-30T10:40:23;6.88;;;1.30;;
32445;SDS011;18899;50.748;7.102;2023-07-30T10:42:48;3.60;;;1.00;;
32445;SDS011;18899;50.748;7.102;2023-07-30T10:45:15;5.00;;;1.02;;
32445;SDS011;18899;50.748;7.102;2023-07-30T10:47:41;6.82;;;1.60;;
32445;SDS011;18899;50.748;7.102;2023-07-30T10:50:07;6.82;;;1.27;;
32445;SDS011;18899;50.748;7.102;2023-07-30T10:52:35;4.65;;;1.17;;
32445;SDS011;18899;50.748;7.102;2023-07-30T10:55:01;2.88;;;0.98;;
32445;SDS011;18899;50.748;7.102;2023-07-30T10:57:30;7.43;;;1.38;;
32445;SDS011;18899;50.748;7.102;2023-07-30T10:59:59;6.38;;;1.25;;
32445;SDS011;18899;50.748;7.102;2023-07-30T11:02:25;5.90;;;1.27;;
32445;SDS011;18899;50.748;7.102;2023-07-30T11:04:50;4.97;;;0.80;;
32445;SDS011;18899;50.748;7.102;2023-07-30T11:07:17;6.15;;;1.10;;
32445;SDS011;18899;50.748;7.102;2023-07-30T11:09:44;3.65;;;1.30;;
32445;SDS011;18899;50.748;7.102;2023-07-30T11:12:09;6.30;;;1.30;;
32445;SDS011;18899;50.748;7.102;2023-07-30T11:14:35;5.38;;;0.82;;
32445;SDS011;18899;50.748;7.102;2023-07-30T11:17:01;3.85;;;1.25;;
32445;SDS011;18899;50.748;7.102;2023-07-30T11:19:27;5.93;;;1.10;;
32445;SDS011;18899;50.748;7.102;2023-07-30T11:21:55;10.75;;;1.30;;
32445;SDS011;18899;50.748;7.102;2023-07-30T11:24:22;3.75;;;0.90;;
32445;SDS011;18899;50.748;7.102;2023-07-30T11:26:58;5.35;;;1.10;;
32445;SDS011;18899;50.748;7.102;2023-07-30T11:29:24;4.40;;;1.00;;
32445;SDS011;18899;50.748;7.102;2023-07-30T11:31:50;3.67;;;0.90;;
32445;SDS011;18899;50.748;7.102;2023-07-30T11:34:16;4.18;;;0.88;;
32445;SDS011;18899;50.748;7.102;2023-07-30T11:36:43;5.97;;;1.05;;
32445;SDS011;18899;50.748;7.102;2023-07-30T11:39:09;3.30;;;0.90;;
32445;SDS011;18899;50.748;7.102;2023-07-30T11:41:35;5.28;;;0.65;;
32445;SDS011;18899;50.748;7.102;2023-07-30T11:44:02;4.55;;;1.00;;
32445;SDS011;18899;50.748;7.102;2023-07-30T11:46:28;4.88;;;0.85;;
32445;SDS011;18899;50.748;7.102;2023-07-30T11:49:09;3.20;;;0.77;;
32445;SDS011;18899;50.748;7.102;2023-07-30T11:51:37;4.47;;;1.00;;
32445;SDS011;18899;50.748;7.102;2023-07-30T11:54:03;4.72;;;0.80;;
32445;SDS011;18899;50.748;7.102;2023-07-30T11:56:29;2.78;;;0.70;;
32445;SDS011;18899;50.748;7.102;2023-07-30T11:59:00;2.58;;;0.60;;
32445;SDS011;18899;50.748;7.102;2023-07-30T12:01:31;6.25;;;0.68;;
32445;SDS011;18899;50.748;7.102;2023-07-30T12:04:00;2.95;;;0.57;;
32445;SDS011;18899;50.748;7.102;2023-07-30T12:09:21;7.57;;;0.93;;
32445;SDS011;18899;50.748;7.102;2023-07-30T12:11:54;3.92;;;0.75;;
32445;SDS011;18899;50.748;7.102;2023-07-30T12:14:24;3.55;;;0.82;;
32445;SDS011;18899;50.748;7.102;2023-07-30T12:16:55;3.10;;;1.05;;
32445;SDS011;18899;50.748;7.102;2023-07-30T12:19:21;2.67;;;0.90;;
32445;SDS011;18899;50.748;7.102;2023-07-30T12:21:46;4.20;;;1.00;;
32445;SDS011;18899;50.748;7.102;2023-07-30T12:24:12;3.50;;;0.80;;
32445;SDS011;18899;50.748;7.102;2023-07-30T12:26:37;3.95;;;0.90;;
32445;SDS011;18899;50.748;7.102;2023-07-30T12:29:03;7.00;;;0.85;;
32445;SDS011;18899;50.748;7.102;2023-07-30T12:31:28;5.28;;;0.85;;
32445;SDS011;18899;50.748;7.102;2023-07-30T12:33:54;3.75;;;1.10;;
32445;SDS011;18899;50.748;7.102;2023-07-30T12:36:20;5.63;;;0.80;;
32445;SDS011;18899;50.748;7.102;2023-07-30T12:38:46;4.40;;;0.90;;
32445;SDS011;18899;50.748;7.102;2023-07-30T12:41:11;6.93;;;1.70;;
32445;SDS011;18899;50.748;7.102;2023-07-30T12:43:37;5.18;;;1.00;;
32445;SDS011;18899;50.748;7.102;2023-07-30T12:46:02;3.58;;;1.20;;
32445;SDS011;18899;50.748;7.102;2023-07-30T12:48:28;4.18;;;0.98;;
32445;SDS011;18899;50.748;7.102;2023-07-30T12:50:53;6.90;;;0.82;;
32445;SDS011;18899;50.748;7.102;2023-07-30T12:53:19;4.97;;;1.00;;
32445;SDS011;18899;50.748;7.102;2023-07-30T12:55:45;6.45;;;0.98;;
32445;SDS011;18899;50.748;7.102;2023-07-30T12:58:10;3.53;;;1.00;;
32445;SDS011;18899;50.748;7.102;2023-07-30T13:00:36;6.45;;;1.40;;
32445;SDS011;18899;50.748;7.102;2023-07-30T13:03:01;8.82;;;1.40;;
32445;SDS011;18899;50.748;7.102;2023-07-30T13:05:27;4.10;;;0.85;;
32445;SDS011;18899;50.748;7.102;2023-07-30T13:07:53;4.15;;;1.05;;
32445;SDS011;18899;50.748;7.102;2023-07-30T13:10:18;3.50;;;0.90;;
32445;SDS011;18899;50.748;7.102;2023-07-30T13:12:44;5.63;;;0.85;;
32445;SDS011;18899;50.748;7.102;2023-07-30T13:15:09;5.95;;;1.20;;
32445;SDS011;18899;50.748;7.102;2023-07-30T13:17:35;1.52;;;0.70;;
32445;SDS011;18899;50.748;7.102;2023-07-30T13:20:01;5.63;;;0.82;;
32445;SDS011;18899;50.748;7.102;2023-07-30T13:22:27;6.88;;;1.00;;
32445;SDS011;18899;50.748;7.102;2023-07-30T13:24:53;3.60;;;0.95;;
32445;SDS011;18899;50.748;7.102;2023-07-30T13:27:18;2.88;;;0.95;;
32445;SDS011;18899;50.748;7.102;2023-07-30T13:29:44;5.00;;;1.33;;
32445;SDS011;18899;50.748;7.102;2023-07-30T13:32:10;5.03;;;1.35;;
32445;SDS011;18899;50.748;7.102;2023-07-30T13:34:35;4.85;;;0.98;;
32445;SDS011;18899;50.748;7.102;2023-07-30T13:37:01;5.88;;;1.10;;
32445;SDS011;18899;50.748;7.102;2023-07-30T13:39:27;7.07;;;1.08;;
32445;SDS011;18899;50.748;7.102;2023-07-30T13:41:52;9.48;;;1.27;;
32445;SDS011;18899;50.748;7.102;2023-07-30T13:44:19;4.68;;;1.00;;
32445;SDS011;18899;50.748;7.102;2023-07-30T13:46:45;3.75;;;0.98;;
32445;SDS011;18899;50.748;7.102;2023-07-30T13:49:10;5.65;;;0.98;;
32445;SDS011;18899;50.748;7.102;2023-07-30T13:51:36;3.92;;;0.90;;
32445;SDS011;18899;50.748;7.102;2023-07-30T13:54:01;10.25;;;1.10;;
32445;SDS011;18899;50.748;7.102;2023-07-30T13:56:28;8.68;;;1.10;;
32445;SDS011;18899;50.748;7.102;2023-07-30T13:58:54;3.65;;;1.17;;
32445;SDS011;18899;50.748;7.102;2023-07-30T14:01:20;4.75;;;1.23;;
32445;SDS011;18899;50.748;7.102;2023-07-30T14:03:46;3.42;;;0.75;;
32445;SDS011;18899;50.748;7.102;2023-07-30T14:06:12;6.72;;;0.90;;
32445;SDS011;18899;50.748;7.102;2023-07-30T14:08:38;5.60;;;0.85;;
32445;SDS011;18899;50.748;7.102;2023-07-30T14:11:03;4.72;;;1.42;;
32445;SDS011;18899;50.748;7.102;2023-07-30T14:13:29;4.63;;;0.95;;
32445;SDS011;18899;50.748;7.102;2023-07-30T14:15:54;3.47;;;0.75;;
32445;SDS011;18899;50.748;7.102;2023-07-30T14:18:21;6.35;;;1.15;;
32445;SDS011;18899;50.748;7.102;2023-07-30T14:20:47;4.57;;;0.88;;
32445;SDS011;18899;50.748;7.102;2023-07-30T14:23:13;5.63;;;1.20;;
32445;SDS011;18899;50.748;7.102;2023-07-30T14:25:38;6.20;;;1.10;;
32445;SDS011;18899;50.748;7.102;2023-07-30T14:28:04;4.45;;;1.20;;
32445;SDS011;18899;50.748;7.102;2023-07-30T14:30:30;4.30;;;0.98;;
32445;SDS011;18899;50.748;7.102;2023-07-30T14:32:56;6.55;;;1.08;;
32445;SDS011;18899;50.748;7.102;2023-07-30T14:35:21;4.63;;;1.10;;
32445;SDS011;18899;50.748;7.102;2023-07-30T14:37:47;2.40;;;0.73;;
32445;SDS011;18899;50.748;7.102;2023-07-30T14:40:14;4.30;;;1.15;;
32445;SDS011;18899;50.748;7.102;2023-07-30T14:42:39;4.32;;;1.08;;
32445;SDS011;18899;50.748;7.102;2023-07-30T14:45:05;6.03;;;1.15;;
32445;SDS011;18899;50.748;7.102;2023-07-30T14:47:32;3.17;;;0.88;;
32445;SDS011;18899;50.748;7.102;2023-07-30T14:49:58;7.88;;;0.93;;